createdAt,value
2023-10-11T00:00:44.893Z,77.42
2023-10-11T00:01:44.864Z,77.11
2023-10-11T00:02:44.874Z,77.51
2023-10-11T00:03:45.046Z,77.42
2023-10-11T00:04:44.882Z,77.42
2023-10-11T00:05:44.812Z,77.72
2023-10-11T00:06:44.818Z,77.42
2023-10-11T00:07:44.775Z,77.62
2023-10-11T00:08:44.800Z,77.31
2023-10-11T00:09:44.757Z,77.62
2023-10-11T00:10:44.753Z,77.82
2023-10-11T00:11:44.797Z,78.12
2023-10-11T00:12:44.731Z,77.82
2023-10-11T00:13:44.708Z,78.26
2023-10-11T00:14:44.728Z,77.86
2023-10-11T00:15:44.689Z,78.16
2023-10-11T00:16:44.703Z,77.95
2023-10-11T00:17:44.758Z,78.16
2023-10-11T00:18:44.860Z,78.06
2023-10-11T00:19:44.669Z,77.86
2023-10-11T00:20:44.648Z,77.95
2023-10-11T00:21:44.632Z,77.95
2023-10-11T00:22:44.639Z,77.95
2023-10-11T00:23:44.622Z,77.66
2023-10-11T00:24:44.590Z,77.86
2023-10-11T00:25:44.570Z,78.16
2023-10-11T00:26:44.571Z,77.86
2023-10-11T00:27:44.580Z,77.95
2023-10-11T00:28:44.552Z,78.26
2023-10-11T00:29:44.587Z,78.46
2023-10-11T00:30:44.562Z,78.36
2023-10-11T00:31:44.524Z,78.66
2023-10-11T00:32:44.577Z,78.26
2023-10-11T00:33:44.562Z,78.76
2023-10-11T00:34:44.483Z,78.06
2023-10-11T00:35:44.468Z,77.86
2023-10-11T00:36:44.501Z,78.16
2023-10-11T00:37:44.438Z,77.95
2023-10-11T00:38:45.005Z,78.36
2023-10-11T00:39:44.430Z,78.36
2023-10-11T00:40:44.410Z,78.66
2023-10-11T00:41:44.430Z,77.95
2023-10-11T00:42:44.406Z,78.46
2023-10-11T00:43:44.368Z,78.16
2023-10-11T00:44:44.395Z,78.16
2023-10-11T00:45:44.356Z,78.36
2023-10-11T00:46:44.369Z,78.16
2023-10-11T00:47:44.394Z,78.36
2023-10-11T00:48:44.424Z,78.36
2023-10-11T00:49:44.303Z,78.59
2023-10-11T00:50:44.319Z,78.59
2023-10-11T00:51:44.286Z,78.59
2023-10-11T00:52:44.291Z,78.59
2023-10-11T00:53:44.314Z,78.50
2023-10-11T00:54:44.385Z,78.39
2023-10-11T00:55:44.232Z,78.80
2023-10-11T00:56:44.265Z,78.80
2023-10-11T00:57:44.228Z,78.39
2023-10-11T00:58:44.242Z,78.26
2023-10-11T00:59:44.210Z,77.86
2023-10-11T01:00:44.184Z,77.95
2023-10-11T01:01:44.214Z,77.95
2023-10-11T01:02:44.476Z,78.06
2023-10-11T01:03:44.373Z,78.06
2023-10-11T01:04:44.211Z,78.46
2023-10-11T01:05:44.140Z,78.50
2023-10-11T01:06:44.118Z,78.70
2023-10-11T01:07:44.097Z,78.80
2023-10-11T01:08:44.099Z,78.90
2023-10-11T01:09:44.113Z,79.41
2023-10-11T01:10:44.068Z,79.34
2023-10-11T01:11:44.116Z,79.21
2023-10-11T01:12:44.044Z,79.54
2023-10-11T01:13:44.031Z,79.44
2023-10-11T01:14:44.096Z,79.74
2023-10-11T01:15:44.004Z,79.74
2023-10-11T01:16:44.279Z,79.64
2023-10-11T01:17:44.066Z,79.74
2023-10-11T01:18:44.024Z,79.64
2023-10-11T01:19:43.966Z,79.34
2023-10-11T01:20:43.988Z,79.00
2023-10-11T01:21:43.944Z,78.70
2023-10-11T01:22:43.953Z,78.70
2023-10-11T01:23:43.936Z,78.80
2023-10-11T01:24:43.910Z,78.59
2023-10-11T01:25:43.922Z,78.19
2023-10-11T01:26:43.972Z,78.19
2023-10-11T01:27:43.870Z,77.99
2023-10-11T01:28:43.867Z,77.99
2023-10-11T01:29:43.862Z,78.09
2023-10-11T01:30:43.838Z,77.79
2023-10-11T01:31:43.846Z,77.35
2023-10-11T01:32:43.934Z,77.75
2023-10-11T01:33:43.906Z,77.55
2023-10-11T01:34:43.856Z,77.55
2023-10-11T01:35:43.782Z,77.55
2023-10-11T01:36:43.878Z,77.55
2023-10-11T01:37:43.774Z,77.35
2023-10-11T01:38:43.835Z,77.35
2023-10-11T01:39:43.736Z,77.25
2023-10-11T01:40:43.724Z,77.45
2023-10-11T01:41:45.002Z,76.84
2023-10-11T01:42:43.705Z,77.15
2023-10-11T01:43:43.695Z,76.84
2023-10-11T01:44:43.733Z,76.75
2023-10-11T01:45:43.682Z,76.84
2023-10-11T01:46:43.661Z,77.04
2023-10-11T01:47:43.724Z,76.84
2023-10-11T01:48:43.698Z,77.15
2023-10-11T01:49:43.617Z,76.84
2023-10-11T01:50:43.639Z,76.14
2023-10-11T01:51:43.618Z,76.75
2023-10-11T01:52:43.639Z,76.14
2023-10-11T01:53:43.591Z,76.64
2023-10-11T01:54:43.566Z,76.44
2023-10-11T01:55:43.553Z,76.34
2023-10-11T01:56:43.578Z,76.64
2023-10-11T01:57:43.548Z,76.34
2023-10-11T01:58:43.529Z,76.54
2023-10-11T01:59:43.528Z,76.44
2023-10-11T02:00:43.498Z,76.34
2023-10-11T02:01:44.095Z,76.34
2023-10-11T02:02:43.647Z,76.14
2023-10-11T02:03:43.510Z,76.54
2023-10-11T02:04:43.458Z,76.95
2023-10-11T02:05:43.525Z,76.64
2023-10-11T02:06:43.430Z,76.64
2023-10-11T02:07:43.443Z,76.44
2023-10-11T02:08:43.442Z,76.24
2023-10-11T02:09:43.395Z,76.34
2023-10-11T02:10:43.393Z,76.34
2023-10-11T02:11:43.634Z,76.34
2023-10-11T02:12:43.386Z,76.75
2023-10-11T02:13:43.349Z,76.58
2023-10-11T02:14:43.366Z,76.88
2023-10-11T02:15:43.367Z,76.44
2023-10-11T02:16:43.321Z,76.54
2023-10-11T02:17:43.350Z,76.34
2023-10-11T02:18:43.291Z,76.58
2023-10-11T02:19:43.280Z,76.68
2023-10-11T02:20:43.296Z,76.78
2023-10-11T02:21:43.258Z,76.78
2023-10-11T02:22:43.271Z,76.98
2023-10-11T02:23:43.244Z,76.78
2023-10-11T02:24:43.233Z,76.88
2023-10-11T02:25:43.210Z,76.78
2023-10-11T02:26:43.217Z,76.98
2023-10-11T02:27:43.207Z,76.88
2023-10-11T02:28:43.183Z,77.28
2023-10-11T02:29:43.270Z,76.88
2023-10-11T02:30:43.163Z,76.98
2023-10-11T02:31:43.222Z,77.08
2023-10-11T02:32:43.273Z,76.98
2023-10-11T02:33:43.208Z,76.88
2023-10-11T02:34:43.116Z,77.19
2023-10-11T02:35:43.136Z,77.39
2023-10-11T02:36:43.090Z,77.22
2023-10-11T02:37:43.096Z,77.08
2023-10-11T02:38:43.085Z,77.08
2023-10-11T02:39:43.051Z,77.08
2023-10-11T02:40:43.044Z,77.49
2023-10-11T02:41:43.036Z,77.53
2023-10-11T02:42:43.049Z,77.12
2023-10-11T02:43:43.006Z,77.39
2023-10-11T02:44:43.076Z,77.42
2023-10-11T02:45:43.052Z,77.62
2023-10-11T02:46:42.984Z,77.83
2023-10-11T02:47:43.068Z,78.03
2023-10-11T02:48:42.999Z,77.93
2023-10-11T02:49:42.942Z,78.13
2023-10-11T02:50:43.045Z,77.93
2023-10-11T02:51:42.917Z,78.13
2023-10-11T02:52:42.912Z,78.33
2023-10-11T02:53:42.945Z,78.43
2023-10-11T02:54:43.334Z,78.03
2023-10-11T02:55:42.869Z,78.33
2023-10-11T02:56:42.893Z,78.03
2023-10-11T02:57:42.851Z,78.43
2023-10-11T02:58:42.883Z,78.43
2023-10-11T02:59:42.833Z,78.94
2023-10-11T03:00:42.822Z,78.57
2023-10-11T03:01:42.848Z,78.67
2023-10-11T03:02:42.959Z,78.88
2023-10-11T03:03:42.899Z,78.67
2023-10-11T03:04:42.931Z,78.88
2023-10-11T03:05:42.782Z,78.88
2023-10-11T03:06:42.760Z,78.88
2023-10-11T03:07:42.740Z,79.08
2023-10-11T03:08:42.743Z,78.88
2023-10-11T03:09:42.715Z,78.97
2023-10-11T03:10:42.734Z,78.77
2023-10-11T03:11:42.709Z,79.17
2023-10-11T03:12:42.702Z,79.17
2023-10-11T03:13:42.667Z,79.17
2023-10-11T03:14:42.988Z,79.17
2023-10-11T03:15:42.693Z,79.08
2023-10-11T03:16:42.642Z,78.33
2023-10-11T03:17:44.659Z,78.53
2023-10-11T03:18:42.685Z,78.43
2023-10-11T03:19:42.598Z,78.23
2023-10-11T03:20:42.635Z,78.53
2023-10-11T03:21:42.581Z,78.74
2023-10-11T03:22:42.580Z,78.63
2023-10-11T03:23:42.579Z,79.04
2023-10-11T03:24:42.553Z,79.04
2023-10-11T03:25:42.565Z,79.08
2023-10-11T03:26:42.557Z,79.14
2023-10-11T03:27:42.511Z,79.14
2023-10-11T03:28:42.551Z,79.28
2023-10-11T03:29:42.535Z,78.74
2023-10-11T03:30:42.483Z,78.94
2023-10-11T03:31:42.490Z,78.63
2023-10-11T03:32:42.551Z,78.94
2023-10-11T03:33:42.471Z,78.53
2023-10-11T03:34:42.435Z,78.84
2023-10-11T03:35:42.445Z,78.84
2023-10-11T03:36:42.432Z,78.84
2023-10-11T03:37:42.404Z,78.63
2023-10-11T03:38:42.610Z,78.74
2023-10-11T03:39:42.379Z,78.84
2023-10-11T03:40:42.366Z,79.34
2023-10-11T03:41:42.405Z,79.08
2023-10-11T03:42:42.344Z,78.88
2023-10-11T03:43:42.618Z,78.84
2023-10-11T03:44:42.379Z,79.14
2023-10-11T03:45:42.344Z,78.53
2023-10-11T03:46:42.382Z,78.74
2023-10-11T03:47:42.480Z,78.63
2023-10-11T03:48:42.425Z,78.94
2023-10-11T03:49:42.277Z,79.14
2023-10-11T03:50:42.270Z,78.94
2023-10-11T03:51:42.273Z,79.28
2023-10-11T03:52:42.228Z,79.17
2023-10-11T03:53:42.261Z,78.88
2023-10-11T03:54:42.206Z,79.34
2023-10-11T03:55:42.203Z,79.48
2023-10-11T03:56:42.225Z,79.58
2023-10-11T03:57:42.207Z,79.38
2023-10-11T03:58:42.161Z,79.58
2023-10-11T03:59:42.195Z,79.79
2023-10-11T04:00:42.170Z,79.48
2023-10-11T04:01:42.163Z,79.68
2023-10-11T04:02:42.238Z,79.58
2023-10-11T04:03:42.315Z,79.99
2023-10-11T04:04:42.116Z,79.99
2023-10-11T04:05:42.120Z,80.29
2023-10-11T04:06:42.091Z,80.39
2023-10-11T04:07:42.089Z,79.79
2023-10-11T04:08:42.132Z,80.49
2023-10-11T04:09:42.045Z,80.29
2023-10-11T04:10:42.027Z,79.68
2023-10-11T04:11:42.027Z,79.68
2023-10-11T04:12:42.027Z,80.08
2023-10-11T04:13:41.999Z,79.88
2023-10-11T04:14:41.983Z,79.92
2023-10-11T04:15:42.018Z,80.12
2023-10-11T04:16:41.959Z,80.02
2023-10-11T04:17:41.998Z,80.32
2023-10-11T04:18:42.021Z,80.43
2023-10-11T04:19:41.939Z,80.22
2023-10-11T04:20:41.929Z,80.53
2023-10-11T04:21:41.910Z,80.43
2023-10-11T04:22:41.909Z,80.32
2023-10-11T04:23:41.885Z,80.63
2023-10-11T04:24:41.893Z,80.93
2023-10-11T04:25:41.864Z,81.03
2023-10-11T04:26:41.855Z,81.44
2023-10-11T04:27:41.845Z,81.78
2023-10-11T04:28:41.831Z,81.98
2023-10-11T04:29:41.839Z,81.98
2023-10-11T04:30:41.935Z,81.98
2023-10-11T04:31:41.800Z,81.98
2023-10-11T04:32:41.819Z,82.18
2023-10-11T04:33:41.788Z,82.08
2023-10-11T04:34:41.776Z,82.28
2023-10-11T04:35:41.751Z,82.39
2023-10-11T04:36:41.736Z,82.62
2023-10-11T04:37:41.725Z,82.83
2023-10-11T04:38:41.707Z,82.93
2023-10-11T04:39:41.741Z,82.93
2023-10-11T04:40:41.689Z,82.93
2023-10-11T04:41:41.684Z,83.13
2023-10-11T04:42:41.673Z,82.93
2023-10-11T04:43:41.677Z,83.13
2023-10-11T04:44:41.645Z,83.03
2023-10-11T04:45:55.141Z,83.13
2023-10-11T04:46:41.661Z,83.13
2023-10-11T04:47:41.698Z,83.74
2023-10-11T04:48:41.695Z,83.74
2023-10-11T04:49:41.591Z,83.98
2023-10-11T04:50:41.647Z,84.08
2023-10-11T04:51:41.573Z,84.59
2023-10-11T04:52:41.560Z,84.59
2023-10-11T04:53:41.546Z,84.69
2023-10-11T04:54:41.551Z,84.93
2023-10-11T04:55:41.575Z,84.93
2023-10-11T04:56:41.523Z,85.33
2023-10-11T04:57:41.712Z,85.24
2023-10-11T04:58:41.489Z,85.64
2023-10-11T04:59:41.491Z,85.54
2023-10-11T05:00:41.520Z,85.54
2023-10-11T05:01:41.464Z,85.64
2023-10-11T05:02:41.483Z,85.64
2023-10-11T05:03:41.731Z,85.64
2023-10-11T05:04:41.437Z,85.64
2023-10-11T05:05:41.445Z,85.64
2023-10-11T05:06:41.398Z,85.54
2023-10-11T05:07:41.391Z,85.64
2023-10-11T05:08:41.376Z,85.74
2023-10-11T05:09:41.396Z,85.84
2023-10-11T05:10:41.356Z,85.84
2023-10-11T05:11:41.369Z,86.05
2023-10-11T05:12:41.334Z,86.05
2023-10-11T05:13:41.324Z,85.84
2023-10-11T05:14:41.308Z,85.94
2023-10-11T05:15:41.300Z,85.84
2023-10-11T05:16:41.287Z,85.84
2023-10-11T05:17:41.364Z,86.15
2023-10-11T05:18:41.315Z,86.05
2023-10-11T05:19:41.314Z,86.15
2023-10-11T05:20:41.274Z,86.25
2023-10-11T05:21:41.254Z,86.15
2023-10-11T05:22:41.225Z,86.05
2023-10-11T05:23:41.237Z,86.15
2023-10-11T05:24:41.193Z,85.94
2023-10-11T05:25:41.189Z,86.05
2023-10-11T05:26:41.198Z,86.25
2023-10-11T05:27:41.173Z,86.05
2023-10-11T05:28:41.147Z,85.84
2023-10-11T05:29:41.140Z,85.74
2023-10-11T05:30:41.182Z,85.74
2023-10-11T05:31:41.140Z,85.74
2023-10-11T05:32:41.173Z,85.64
2023-10-11T05:33:41.204Z,85.54
2023-10-11T05:34:41.080Z,85.54
2023-10-11T05:35:41.090Z,85.44
2023-10-11T05:36:41.081Z,85.74
2023-10-11T05:37:41.071Z,85.44
2023-10-11T05:38:41.035Z,85.44
2023-10-11T05:39:41.033Z,85.54
2023-10-11T05:40:41.015Z,85.44
2023-10-11T05:41:41.006Z,85.54
2023-10-11T05:42:41.066Z,85.44
2023-10-11T05:43:40.989Z,85.74
2023-10-11T05:44:40.985Z,85.64
2023-10-11T05:45:40.967Z,85.74
2023-10-11T05:46:40.989Z,85.64
2023-10-11T05:47:40.974Z,85.44
2023-10-11T05:48:40.994Z,85.54
2023-10-11T05:49:40.968Z,85.33
2023-10-11T05:50:42.789Z,85.54
2023-10-11T05:51:40.896Z,85.44
2023-10-11T05:52:40.879Z,85.64
2023-10-11T05:53:40.895Z,85.74
2023-10-11T05:54:40.851Z,85.54
2023-10-11T05:55:40.847Z,85.74
2023-10-11T05:56:40.951Z,85.74
2023-10-11T05:57:40.824Z,85.74
2023-10-11T05:58:40.858Z,85.84
2023-10-11T05:59:40.822Z,85.84
2023-10-11T06:00:40.782Z,85.94
2023-10-11T06:01:40.848Z,85.94
2023-10-11T06:02:40.837Z,85.84
2023-10-11T06:03:40.803Z,85.94
2023-10-11T06:04:40.927Z,85.64
2023-10-11T06:05:40.754Z,85.74
2023-10-11T06:06:40.838Z,85.54
2023-10-11T06:07:40.712Z,85.44
2023-10-11T06:08:40.691Z,85.19
2023-10-11T06:09:40.709Z,85.30
2023-10-11T06:10:40.668Z,85.30
2023-10-11T06:11:40.676Z,85.50
2023-10-11T06:12:40.651Z,85.60
2023-10-11T06:13:40.637Z,85.39
2023-10-11T06:14:40.650Z,84.99
2023-10-11T06:15:40.618Z,84.99
2023-10-11T06:16:40.700Z,85.39
2023-10-11T06:17:40.743Z,85.70
2023-10-11T06:18:41.033Z,85.30
2023-10-11T06:19:40.601Z,85.19
2023-10-11T06:20:40.553Z,84.79
2023-10-11T06:21:40.555Z,84.79
2023-10-11T06:22:40.544Z,84.89
2023-10-11T06:23:40.555Z,84.59
2023-10-11T06:24:40.529Z,84.25
2023-10-11T06:25:40.518Z,84.04
2023-10-11T06:26:40.497Z,83.84
2023-10-11T06:27:40.484Z,83.74
2023-10-11T06:28:40.481Z,83.94
2023-10-11T06:29:40.464Z,84.04
2023-10-11T06:30:40.598Z,83.74
2023-10-11T06:31:40.469Z,84.14
2023-10-11T06:32:40.459Z,83.84
2023-10-11T06:33:40.517Z,84.14
2023-10-11T06:34:40.413Z,84.04
2023-10-11T06:35:40.473Z,84.34
2023-10-11T06:36:40.397Z,84.14
2023-10-11T06:37:40.369Z,84.04
2023-10-11T06:38:40.353Z,84.34
2023-10-11T06:39:40.344Z,83.84
2023-10-11T06:40:40.878Z,83.94
2023-10-11T06:41:40.319Z,84.25
2023-10-11T06:42:40.326Z,84.25
2023-10-11T06:43:41.541Z,84.25
2023-10-11T06:44:40.280Z,84.34
2023-10-11T06:45:40.315Z,84.25
2023-10-11T06:46:40.297Z,83.44
2023-10-11T06:47:40.320Z,83.19
2023-10-11T06:48:40.277Z,83.40
2023-10-11T06:49:40.228Z,83.40
2023-10-11T06:50:40.254Z,83.40
2023-10-11T06:51:40.206Z,82.69
2023-10-11T06:52:40.207Z,82.79
2023-10-11T06:53:40.181Z,82.59
2023-10-11T06:54:40.189Z,82.39
2023-10-11T06:55:40.183Z,82.59
2023-10-11T06:56:40.142Z,82.65
2023-10-11T06:57:40.160Z,82.49
2023-10-11T06:58:40.126Z,82.49
2023-10-11T06:59:40.152Z,82.24
2023-10-11T07:00:40.125Z,82.35
2023-10-11T07:01:40.099Z,82.45
2023-10-11T07:02:40.250Z,82.24
2023-10-11T07:03:40.172Z,82.04
2023-10-11T07:04:40.115Z,82.14
2023-10-11T07:05:40.067Z,82.04
2023-10-11T07:06:40.036Z,81.54
2023-10-11T07:07:40.118Z,81.64
2023-10-11T07:08:40.008Z,81.74
2023-10-11T07:09:40.005Z,81.64
2023-10-11T07:10:39.984Z,81.23
2023-10-11T07:11:40.002Z,81.10
2023-10-11T07:12:40.216Z,81.10
2023-10-11T07:13:39.956Z,81.30
2023-10-11T07:14:39.946Z,80.59
2023-10-11T07:15:40.003Z,80.99
2023-10-11T07:16:39.965Z,81.10
2023-10-11T07:17:39.917Z,80.99
2023-10-11T07:18:39.910Z,80.79
2023-10-11T07:19:39.900Z,80.99
2023-10-11T07:20:39.876Z,80.79
2023-10-11T07:21:39.889Z,81.30
2023-10-11T07:22:39.856Z,80.49
2023-10-11T07:23:39.845Z,80.79
2023-10-11T07:24:39.830Z,80.59
2023-10-11T07:25:39.827Z,80.15
2023-10-11T07:26:39.832Z,80.05
2023-10-11T07:27:39.806Z,80.15
2023-10-11T07:28:39.796Z,80.45
2023-10-11T07:29:39.779Z,79.74
2023-10-11T07:30:39.822Z,79.24
2023-10-11T07:31:40.099Z,79.74
2023-10-11T07:32:39.858Z,79.21
2023-10-11T07:33:39.828Z,79.71
2023-10-11T07:34:39.751Z,79.61
2023-10-11T07:35:39.718Z,79.41
2023-10-11T07:36:39.733Z,79.50
2023-10-11T07:37:39.690Z,78.90
2023-10-11T07:38:39.672Z,79.00
2023-10-11T07:39:39.697Z,79.50
2023-10-11T07:40:39.650Z,80.18
2023-10-11T07:41:39.639Z,79.67
2023-10-11T07:42:39.654Z,78.50
2023-10-11T07:43:39.626Z,78.26
2023-10-11T07:44:39.645Z,78.86
2023-10-11T07:45:39.596Z,78.56
2023-10-11T07:46:39.582Z,78.66
2023-10-11T07:47:40.600Z,78.56
2023-10-11T07:48:39.653Z,78.36
2023-10-11T07:49:39.546Z,78.56
2023-10-11T07:50:39.745Z,78.56
2023-10-11T07:51:39.522Z,78.16
2023-10-11T07:52:39.516Z,77.55
2023-10-11T07:53:39.522Z,77.82
2023-10-11T07:54:39.494Z,77.42
2023-10-11T07:55:39.482Z,77.62
2023-10-11T07:56:39.476Z,77.51
2023-10-11T07:57:39.464Z,77.21
2023-10-11T07:58:39.448Z,78.02
2023-10-11T07:59:39.454Z,78.32
2023-10-11T08:00:39.432Z,78.52
2023-10-11T08:01:39.445Z,77.42
2023-10-11T08:02:39.407Z,76.81
2023-10-11T08:03:39.521Z,76.81
2023-10-11T08:04:39.444Z,77.28
2023-10-11T08:05:39.364Z,77.28
2023-10-11T08:06:40.199Z,78.19
2023-10-11T08:07:39.350Z,77.08
2023-10-11T08:08:39.574Z,77.38
2023-10-11T08:09:39.365Z,77.38
2023-10-11T08:10:39.324Z,77.78
2023-10-11T08:11:39.297Z,77.78
2023-10-11T08:12:39.313Z,77.38
2023-10-11T08:13:39.271Z,77.58
2023-10-11T08:14:40.350Z,77.08
2023-10-11T08:15:39.274Z,77.58
2023-10-11T08:16:39.333Z,77.38
2023-10-11T08:17:39.242Z,77.38
2023-10-11T08:18:39.319Z,76.67
2023-10-11T08:19:39.223Z,76.77
2023-10-11T08:20:40.112Z,77.08
2023-10-11T08:21:39.181Z,78.19
2023-10-11T08:22:39.173Z,76.97
2023-10-11T08:23:39.156Z,76.67
2023-10-11T08:24:39.172Z,76.57
2023-10-11T08:25:39.131Z,76.23
2023-10-11T08:26:39.132Z,76.74
2023-10-11T08:27:39.113Z,76.34
2023-10-11T08:28:39.116Z,76.74
2023-10-11T08:29:49.675Z,76.94
2023-10-11T08:30:39.656Z,76.94
2023-10-11T08:31:39.122Z,75.53
2023-10-11T08:32:39.317Z,75.93
2023-10-11T08:33:39.614Z,76.74
2023-10-11T08:34:39.036Z,76.84
2023-10-11T08:35:39.051Z,76.03
2023-10-11T08:36:39.032Z,76.74
2023-10-11T08:37:39.118Z,77.20
2023-10-11T08:38:38.986Z,76.43
2023-10-11T08:39:38.974Z,76.40
2023-10-11T08:40:38.994Z,76.60
2023-10-11T08:41:38.952Z,76.70
2023-10-11T08:42:38.985Z,77.00
2023-10-11T08:43:39.006Z,76.90
2023-10-11T08:44:38.916Z,77.00
2023-10-11T08:45:39.037Z,77.20
2023-10-11T08:46:38.896Z,75.99
2023-10-11T08:47:38.897Z,75.79
2023-10-11T08:48:38.888Z,75.70
2023-10-11T08:49:38.862Z,76.60
2023-10-11T08:50:38.878Z,75.70
2023-10-11T08:51:38.867Z,75.59
2023-10-11T08:52:38.827Z,75.90
2023-10-11T08:53:38.812Z,75.96
2023-10-11T08:54:38.876Z,76.06
2023-10-11T08:55:38.797Z,75.46
2023-10-11T08:56:38.798Z,75.66
2023-10-11T08:57:38.763Z,76.36
2023-10-11T08:58:39.005Z,75.56
2023-10-11T08:59:38.746Z,75.05
2023-10-11T09:00:38.799Z,76.06
2023-10-11T09:01:38.788Z,75.56
2023-10-11T09:02:38.751Z,75.26
2023-10-11T09:03:38.760Z,76.06
2023-10-11T09:04:38.769Z,76.56
2023-10-11T09:05:38.670Z,75.35
2023-10-11T09:06:38.690Z,75.35
2023-10-11T09:07:38.673Z,76.16
2023-10-11T09:08:38.647Z,76.03
2023-10-11T09:09:39.692Z,76.32
2023-10-11T09:10:40.511Z,75.22
2023-10-11T09:11:38.628Z,75.92
2023-10-11T09:12:38.602Z,76.23
2023-10-11T09:13:38.585Z,75.79
2023-10-11T09:14:38.582Z,75.18
2023-10-11T09:15:38.571Z,75.22
2023-10-11T09:16:38.625Z,73.81
2023-10-11T09:17:38.554Z,73.81
2023-10-11T09:18:38.609Z,74.82
2023-10-11T09:19:39.085Z,75.09
2023-10-11T09:20:38.514Z,75.18
2023-10-11T09:21:38.566Z,75.35
2023-10-11T09:22:38.493Z,74.65
2023-10-11T09:23:38.481Z,74.24
2023-10-11T09:24:40.630Z,74.41
2023-10-11T09:25:38.464Z,74.91
2023-10-11T09:26:42.848Z,73.81
2023-10-11T09:27:38.466Z,73.71
2023-10-11T09:28:38.426Z,73.00
2023-10-11T09:29:38.409Z,73.87
2023-10-11T09:30:38.471Z,73.37
2023-10-11T09:31:38.429Z,73.67
2023-10-11T09:32:38.452Z,72.56
2023-10-11T09:33:38.487Z,73.07
2023-10-11T09:34:38.364Z,73.37
2023-10-11T09:35:39.249Z,73.27
2023-10-11T09:36:38.444Z,73.27
2023-10-11T09:37:38.415Z,74.04
2023-10-11T09:38:38.375Z,73.07
2023-10-11T09:39:39.027Z,73.00
2023-10-11T09:40:38.540Z,73.10
2023-10-11T09:41:38.320Z,73.10
2023-10-11T09:42:39.159Z,73.91
2023-10-11T09:43:38.303Z,73.71
2023-10-11T09:44:38.334Z,73.50
2023-10-11T09:45:38.391Z,73.41
2023-10-11T09:46:38.292Z,73.57
2023-10-11T09:47:38.305Z,73.67
2023-10-11T09:48:38.252Z,73.27
2023-10-11T09:49:38.232Z,73.37
2023-10-11T09:50:38.228Z,73.27
2023-10-11T09:51:38.191Z,73.47
2023-10-11T09:52:38.706Z,74.14
2023-10-11T09:53:38.179Z,72.67
2023-10-11T09:54:38.240Z,73.17
2023-10-11T09:55:38.194Z,73.33
2023-10-11T09:56:38.469Z,73.24
2023-10-11T09:57:38.212Z,72.03
2023-10-11T09:58:38.146Z,73.13
2023-10-11T09:59:38.151Z,72.83
2023-10-11T10:00:38.180Z,72.33
2023-10-11T10:01:38.071Z,73.24
2023-10-11T10:02:38.158Z,72.53
2023-10-11T10:03:40.278Z,72.43
2023-10-11T10:04:38.654Z,71.56
2023-10-11T10:05:38.135Z,72.74
2023-10-11T10:06:38.043Z,73.74
2023-10-11T10:07:38.057Z,74.60
2023-10-11T10:08:38.100Z,72.80
2023-10-11T10:09:38.058Z,72.40
2023-10-11T10:10:37.988Z,72.33
2023-10-11T10:11:37.995Z,73.00
2023-10-11T10:12:37.958Z,73.20
2023-10-11T10:13:38.632Z,73.00
2023-10-11T10:14:37.965Z,72.90
2023-10-11T10:15:38.057Z,72.77
2023-10-11T10:16:37.933Z,72.66
2023-10-11T10:17:37.966Z,72.97
2023-10-11T10:18:37.997Z,72.16
2023-10-11T10:19:37.967Z,71.96
2023-10-11T10:20:37.856Z,72.77
2023-10-11T10:21:37.920Z,72.56
2023-10-11T10:22:37.849Z,72.56
2023-10-11T10:23:37.884Z,72.36
2023-10-11T10:24:38.098Z,73.36
2023-10-11T10:25:37.800Z,73.07
2023-10-11T10:26:37.810Z,73.20
2023-10-11T10:27:37.938Z,73.70
2023-10-11T10:28:38.250Z,73.16
2023-10-11T10:29:37.737Z,74.07
2023-10-11T10:30:37.827Z,73.86
2023-10-11T10:31:38.064Z,73.27
2023-10-11T10:32:37.742Z,73.86
2023-10-11T10:33:37.741Z,73.77
2023-10-11T10:34:37.713Z,73.73
2023-10-11T10:35:38.526Z,75.23
2023-10-11T10:36:37.812Z,74.43
2023-10-11T10:37:37.691Z,73.83
2023-10-11T10:38:37.675Z,72.63
2023-10-11T10:39:37.686Z,73.13
2023-10-11T10:40:37.621Z,73.33
2023-10-11T10:41:37.635Z,73.33
2023-10-11T10:42:37.698Z,73.63
2023-10-11T10:43:37.636Z,74.00
2023-10-11T10:44:37.592Z,73.33
2023-10-11T10:45:37.615Z,73.83
2023-10-11T10:46:37.684Z,73.33
2023-10-11T10:47:37.560Z,74.43
2023-10-11T10:48:37.593Z,74.30
2023-10-11T10:49:37.499Z,74.40
2023-10-11T10:50:37.499Z,73.50
2023-10-11T10:51:37.560Z,74.10
2023-10-11T10:52:37.514Z,74.46
2023-10-11T10:53:37.471Z,73.76
2023-10-11T10:54:37.515Z,73.36
2023-10-11T10:55:37.432Z,73.76
2023-10-11T10:56:37.483Z,72.46
2023-10-11T10:57:37.519Z,73.26
2023-10-11T10:58:37.439Z,73.33
2023-10-11T10:59:37.466Z,72.83
2023-10-11T11:00:37.543Z,71.96
2023-10-11T11:01:37.548Z,73.56
2023-10-11T11:02:37.519Z,72.56
2023-10-11T11:03:37.694Z,72.56
2023-10-11T11:04:37.482Z,73.26
2023-10-11T11:05:37.358Z,72.96
2023-10-11T11:06:37.396Z,73.16
2023-10-11T11:07:37.371Z,73.50
2023-10-11T11:08:37.326Z,74.00
2023-10-11T11:09:37.360Z,73.26
2023-10-11T11:10:37.294Z,74.16
2023-10-11T11:11:37.283Z,74.73
2023-10-11T11:12:37.344Z,73.72
2023-10-11T11:13:37.235Z,74.46
2023-10-11T11:14:37.254Z,74.26
2023-10-11T11:15:37.311Z,74.30
2023-10-11T11:16:37.327Z,74.60
2023-10-11T11:17:37.239Z,74.50
2023-10-11T11:18:37.233Z,75.00
2023-10-11T11:19:37.228Z,75.90
2023-10-11T11:20:37.190Z,75.40
2023-10-11T11:21:37.251Z,75.37
2023-10-11T11:22:37.225Z,75.67
2023-10-11T11:23:37.159Z,75.76
2023-10-11T11:24:37.136Z,75.87
2023-10-11T11:25:37.091Z,76.13
2023-10-11T11:26:37.131Z,74.93
2023-10-11T11:27:37.213Z,74.56
2023-10-11T11:28:37.087Z,75.37
2023-10-11T11:29:37.059Z,74.96
2023-10-11T11:30:37.179Z,75.56
2023-10-11T11:31:37.253Z,75.37
2023-10-11T11:32:37.051Z,75.93
2023-10-11T11:33:37.067Z,75.26
2023-10-11T11:34:37.019Z,75.13
2023-10-11T11:35:36.985Z,75.33
2023-10-11T11:36:37.009Z,75.33
2023-10-11T11:37:36.962Z,74.53
2023-10-11T11:38:36.972Z,75.56
2023-10-11T11:39:36.969Z,75.56
2023-10-11T11:40:36.933Z,75.83
2023-10-11T11:41:36.920Z,75.49
2023-10-11T11:42:36.940Z,75.99
2023-10-11T11:43:36.921Z,74.59
2023-10-11T11:44:36.886Z,75.39
2023-10-11T11:45:37.261Z,75.29
2023-10-11T11:46:36.891Z,74.13
2023-10-11T11:47:36.872Z,75.23
2023-10-11T11:48:36.890Z,75.26
2023-10-11T11:49:36.870Z,75.50
2023-10-11T11:50:36.816Z,76.20
2023-10-11T11:51:36.851Z,75.80
2023-10-11T11:52:36.803Z,75.90
2023-10-11T11:53:36.781Z,76.37
2023-10-11T11:54:36.811Z,76.53
2023-10-11T11:55:36.767Z,75.33
2023-10-11T11:56:36.766Z,76.13
2023-10-11T11:57:36.795Z,75.02
2023-10-11T11:58:36.727Z,75.83
2023-10-11T11:59:36.736Z,75.83
2023-10-11T12:00:36.731Z,75.37
2023-10-11T12:01:37.915Z,76.06
2023-10-11T12:02:36.699Z,76.37
2023-10-11T12:03:36.792Z,76.09
2023-10-11T12:04:36.797Z,75.59
2023-10-11T12:05:36.646Z,75.56
2023-10-11T12:06:36.707Z,76.06
2023-10-11T12:07:39.052Z,75.42
2023-10-11T12:08:36.608Z,73.36
2023-10-11T12:09:47.592Z,75.05
2023-10-11T12:10:36.599Z,75.56
2023-10-11T12:11:36.583Z,74.99
2023-10-11T12:12:36.579Z,75.79
2023-10-11T12:13:36.563Z,76.09
2023-10-11T12:14:36.563Z,75.05
2023-10-11T12:15:36.589Z,74.99
2023-10-11T12:16:36.576Z,75.05
2023-10-11T12:17:36.592Z,75.96
2023-10-11T12:18:36.588Z,75.46
2023-10-11T12:19:36.519Z,75.39
2023-10-11T12:20:36.486Z,76.06
2023-10-11T12:21:36.535Z,75.96
2023-10-11T12:22:36.450Z,74.96
2023-10-11T12:23:36.443Z,75.09
2023-10-11T12:24:36.657Z,75.19
2023-10-11T12:25:36.428Z,76.79
2023-10-11T12:26:36.407Z,76.86
2023-10-11T12:27:36.417Z,76.06
2023-10-11T12:28:36.380Z,76.72
2023-10-11T12:29:36.377Z,76.22
2023-10-11T12:30:36.469Z,74.72
2023-10-11T12:31:36.376Z,74.76
2023-10-11T12:32:36.368Z,75.39
2023-10-11T12:33:36.350Z,75.65
2023-10-11T12:34:36.335Z,75.26
2023-10-11T12:35:36.351Z,75.19
2023-10-11T12:36:36.401Z,75.39
2023-10-11T12:37:37.085Z,76.69
2023-10-11T12:38:36.285Z,74.99
2023-10-11T12:39:36.311Z,75.49
2023-10-11T12:40:36.319Z,76.69
2023-10-11T12:41:36.260Z,76.15
2023-10-11T12:42:36.254Z,76.26
2023-10-11T12:43:36.227Z,76.65
2023-10-11T12:44:36.204Z,76.52
2023-10-11T12:45:36.258Z,76.22
2023-10-11T12:46:36.244Z,75.22
2023-10-11T12:47:36.223Z,75.22
2023-10-11T12:48:36.185Z,74.76
2023-10-11T12:49:36.154Z,75.26
2023-10-11T12:50:36.139Z,75.72
2023-10-11T12:51:36.151Z,74.22
2023-10-11T12:52:36.137Z,74.26